No particular awareness of the weather is required.    There are no Weather-warnings


Meteo18 Weather Cam more information Meteo18 Weather Cam


Thunder radar more information blitzortung!


Rain radar more information rain snow radar


Visit our other weather sites:

Template documentation
and downloads

And another site



Weather Underground History page Text

Daily Summary for October 3, 2016 Units:  Metric    English   Both
« Previous Day
Next Day »
Daily Weekly Monthly Yearly Custom
  High: Low: Average:
Temperature: 17.7 °C 5.1 °C 11.3 °C
Dew Point: 10.5 °C 4.5 °C 7.3 °C
Humidity: 96 % 46 % 78 %
Wind Speed: 16.1 km/h 0.0 km/h 5 km/h
Wind Gust: 24.1 km/h - -
Wind:- - ENE
Pressure: 1026.6 hPa 1021.9 hPa -
Precipitation: 0.3 mm    
Historical Graphs
 
 
Tabular Data for October 3, 2016
Time Temperature Dew Point Pressure Wind Wind Speed Wind Gust Humidity Rainfall Rate (Hourly)
00:02 8.9 °C 6.9 °C 1021.9 hPa Calm   3.2 km/h 87 % 0.0 mm
00:07 8.7 °C 6.8 °C 1022.2 hPa Calm   1.6 km/h 88 % 0.0 mm
00:12 8.6 °C 6.9 °C 1022.2 hPa Calm     89 % 0.0 mm
00:17 8.4 °C 6.9 °C 1022.2 hPa Calm     90 % 0.0 mm
00:22 8.3 °C 6.8 °C 1022.2 hPa Calm     90 % 0.0 mm
00:32 8.2 °C 6.8 °C 1022.2 hPa Calm     91 % 0.0 mm
00:42 8.1 °C 6.9 °C 1022.2 hPa Calm     92 % 0.0 mm
00:47 8.2 °C 7.0 °C 1022.2 hPa NNW 1.6 km/h 3.2 km/h 92 % 0.0 mm
00:52 8.4 °C 7.0 °C 1022.2 hPa NNW 1.6 km/h 3.2 km/h 91 % 0.0 mm
00:57 8.4 °C 6.9 °C 1022.2 hPa Calm   3.2 km/h 90 % 0.0 mm
01:02 8.3 °C 6.8 °C 1022.2 hPa Calm   3.2 km/h 90 % 0.0 mm
01:07 8.1 °C 6.6 °C 1022.6 hPa Calm   3.2 km/h 90 % 0.0 mm
01:12 7.9 °C 6.5 °C 1022.6 hPa Calm   1.6 km/h 91 % 0.0 mm
01:17 7.7 °C 6.3 °C 1022.6 hPa Calm   1.6 km/h 91 % 0.0 mm
01:22 7.7 °C 6.5 °C 1022.9 hPa Calm   1.6 km/h 92 % 0.0 mm
01:27 7.6 °C 6.4 °C 1022.9 hPa Calm   1.6 km/h 92 % 0.0 mm
01:32 7.4 °C 6.2 °C 1022.9 hPa Calm     92 % 0.0 mm
01:37 7.5 °C 6.4 °C 1022.9 hPa Calm     93 % 0.0 mm
01:42 7.4 °C 6.3 °C 1022.9 hPa Calm     93 % 0.0 mm
01:47 7.4 °C 6.3 °C 1022.9 hPa Calm     93 % 0.0 mm
01:57 7.2 °C 6.1 °C 1022.9 hPa Calm     93 % 0.0 mm
02:02 7.2 °C 6.3 °C 1022.9 hPa Calm     94 % 0.0 mm
02:07 7.2 °C 6.1 °C 1023.2 hPa Calm     93 % 0.0 mm
02:12 7.1 °C 6.2 °C 1023.2 hPa Calm     94 % 0.0 mm
02:17 7.1 °C 6.2 °C 1023.2 hPa Calm     94 % 0.0 mm
02:22 7.1 °C 6.2 °C 1023.2 hPa Calm     94 % 0.0 mm
02:27 7.1 °C 6.2 °C 1023.2 hPa Calm     94 % 0.0 mm
02:32 7.0 °C 6.1 °C 1023.2 hPa Calm     94 % 0.0 mm
02:37 6.9 °C 6.0 °C 1023.2 hPa Calm     94 % 0.0 mm
02:42 6.8 °C 5.9 °C 1023.2 hPa Calm     94 % 0.0 mm
02:47 6.9 °C 6.0 °C 1023.2 hPa Calm     94 % 0.0 mm
02:52 7.1 °C 6.4 °C 1023.6 hPa Calm     95 % 0.0 mm
02:57 7.1 °C 6.4 °C 1023.6 hPa Calm     95 % 0.0 mm
03:02 7.0 °C 6.1 °C 1023.6 hPa Calm     94 % 0.0 mm
03:07 6.9 °C 6.0 °C 1023.6 hPa Calm     94 % 0.0 mm
03:12 6.8 °C 5.9 °C 1023.6 hPa Calm     94 % 0.0 mm
03:17 6.8 °C 5.9 °C 1023.6 hPa Calm     94 % 0.0 mm
03:22 6.7 °C 5.8 °C 1023.6 hPa Calm     94 % 0.0 mm
03:27 6.7 °C 6.0 °C 1023.6 hPa Calm     95 % 0.0 mm
03:32 6.7 °C 5.8 °C 1023.6 hPa NNE 1.6 km/h 3.2 km/h 94 % 0.0 mm
03:37 6.7 °C 6.0 °C 1023.6 hPa NNE 3.2 km/h 3.2 km/h 95 % 0.0 mm
03:42 6.8 °C 6.1 °C 1023.6 hPa Calm   3.2 km/h 95 % 0.0 mm
03:47 6.9 °C 6.2 °C 1023.6 hPa Calm   3.2 km/h 95 % 0.0 mm
03:52 6.9 °C 6.2 °C 1023.6 hPa NNW 1.6 km/h 3.2 km/h 95 % 0.0 mm
03:57 6.8 °C 5.9 °C 1023.9 hPa Calm   1.6 km/h 94 % 0.0 mm
04:02 6.6 °C 5.7 °C 1023.6 hPa Calm   1.6 km/h 94 % 0.0 mm
04:12 6.6 °C 5.9 °C 1023.6 hPa Calm   1.6 km/h 95 % 0.0 mm
04:17 6.6 °C 5.9 °C 1023.6 hPa Calm   1.6 km/h 95 % 0.0 mm
04:22 6.6 °C 5.9 °C 1023.6 hPa Calm   1.6 km/h 95 % 0.0 mm
04:32 6.4 °C 5.7 °C 1023.9 hPa Calm   1.6 km/h 95 % 0.0 mm
04:37 6.2 °C 5.5 °C 1023.9 hPa Calm   1.6 km/h 95 % 0.0 mm
04:42 6.1 °C 5.4 °C 1023.9 hPa Calm     95 % 0.0 mm
04:47 5.9 °C 5.2 °C 1023.9 hPa Calm     95 % 0.0 mm
04:52 5.8 °C 5.1 °C 1023.9 hPa Calm     95 % 0.0 mm
04:57 5.8 °C 5.1 °C 1023.9 hPa Calm     95 % 0.0 mm
05:02 5.9 °C 5.3 °C 1023.9 hPa Calm     96 % 0.0 mm
05:12 5.7 °C 5.0 °C 1023.9 hPa Calm     95 % 0.0 mm
05:17 5.8 °C 5.2 °C 1024.3 hPa North 1.6 km/h 1.6 km/h 96 % 0.0 mm
05:22 5.8 °C 5.1 °C 1024.3 hPa Calm   1.6 km/h 95 % 0.0 mm
05:32 5.8 °C 5.2 °C 1024.3 hPa Calm   1.6 km/h 96 % 0.0 mm
05:37 5.9 °C 5.3 °C 1024.3 hPa NNW 1.6 km/h 1.6 km/h 96 % 0.0 mm
05:42 6.1 °C 5.5 °C 1024.3 hPa North 3.2 km/h 3.2 km/h 96 % 0.0 mm
05:57 6.1 °C 5.5 °C 1024.6 hPa Calm   3.2 km/h 96 % 0.0 mm
06:02 6.2 °C 5.6 °C 1024.6 hPa Calm   3.2 km/h 96 % 0.0 mm
06:12 6.2 °C 5.6 °C 1024.6 hPa Calm     96 % 0.0 mm
06:17 6.2 °C 5.6 °C 1024.6 hPa Calm     96 % 0.0 mm
06:22 6.2 °C 5.6 °C 1024.6 hPa Calm     96 % 0.0 mm
06:27 6.1 °C 5.5 °C 1024.6 hPa Calm     96 % 0.0 mm
06:32 6.2 °C 5.6 °C 1024.6 hPa Calm     96 % 0.0 mm
06:37 6.0 °C 5.4 °C 1024.6 hPa Calm     96 % 0.0 mm
06:52 5.6 °C 5.0 °C 1024.6 hPa Calm     96 % 0.0 mm
07:02 5.7 °C 5.1 °C 1024.6 hPa Calm     96 % 0.0 mm
07:12 5.6 °C 5.0 °C 1024.9 hPa Calm     96 % 0.0 mm
07:17 5.3 °C 4.6 °C 1024.9 hPa Calm     95 % 0.0 mm
07:22 5.1 °C 4.5 °C 1024.9 hPa Calm     96 % 0.0 mm
07:27 5.3 °C 4.7 °C 1024.9 hPa Calm     96 % 0.0 mm
07:32 5.4 °C 4.8 °C 1024.9 hPa Calm     96 % 0.0 mm
07:42 5.3 °C 4.7 °C 1024.9 hPa Calm     96 % 0.0 mm
07:52 5.3 °C 4.7 °C 1024.9 hPa Calm     96 % 0.3 mm
07:57 5.2 °C 4.6 °C 1025.3 hPa Calm     96 % 0.3 mm
08:02 5.2 °C 4.6 °C 1025.3 hPa Calm     96 % 0.3 mm
08:12 5.4 °C 4.8 °C 1025.3 hPa Calm     96 % 0.3 mm
08:17 5.3 °C 4.7 °C 1025.3 hPa Calm     96 % 0.3 mm
08:22 5.4 °C 4.8 °C 1025.3 hPa Calm     96 % 0.3 mm
08:27 5.5 °C 4.9 °C 1025.3 hPa Calm     96 % 0.3 mm
08:32 5.8 °C 5.2 °C 1025.3 hPa Calm     96 % 0.3 mm
08:42 5.6 °C 4.9 °C 1025.6 hPa Calm     95 % 0.3 mm
08:47 5.8 °C 5.2 °C 1025.6 hPa Calm     96 % 0.3 mm
08:52 6.1 °C 5.5 °C 1025.6 hPa Calm     96 % 0.0 mm
08:57 6.3 °C 5.7 °C 1025.6 hPa Calm     96 % 0.0 mm
09:02 6.7 °C 6.1 °C 1025.6 hPa Calm     96 % 0.0 mm
09:12 7.6 °C 7.0 °C 1026.0 hPa Calm     96 % 0.0 mm
09:17 7.7 °C 6.9 °C 1026.0 hPa Calm     95 % 0.0 mm
09:22 7.9 °C 7.1 °C 1026.0 hPa NNE 3.2 km/h   95 % 0.0 mm
09:27 8.0 °C 7.2 °C 1026.0 hPa NNE 1.6 km/h 3.2 km/h 95 % 0.0 mm
09:32 8.1 °C 7.3 °C 1026.0 hPa NNE 1.6 km/h 4.8 km/h 95 % 0.0 mm
09:42 8.5 °C 7.6 °C 1026.0 hPa Calm   4.8 km/h 94 % 0.0 mm
09:47 8.7 °C 7.8 °C 1026.0 hPa NNE 3.2 km/h 4.8 km/h 94 % 0.0 mm
09:52 8.9 °C 8.0 °C 1026.0 hPa Calm   4.8 km/h 94 % 0.0 mm
09:57 9.2 °C 8.1 °C 1026.3 hPa NNE 1.6 km/h 4.8 km/h 93 % 0.0 mm
10:02 9.6 °C 8.5 °C 1026.3 hPa NNE 3.2 km/h 4.8 km/h 93 % 0.0 mm
10:07 9.8 °C 8.6 °C 1026.3 hPa NNE 3.2 km/h 4.8 km/h 92 % 0.0 mm
10:12 10.2 °C 9.0 °C 1026.3 hPa NE 1.6 km/h 6.4 km/h 92 % 0.0 mm
10:17 10.7 °C 9.5 °C 1026.3 hPa Calm   6.4 km/h 92 % 0.0 mm
10:22 11.1 °C 9.5 °C 1026.3 hPa Calm   6.4 km/h 90 % 0.0 mm
10:27 11.7 °C 9.8 °C 1026.3 hPa Calm   3.2 km/h 88 % 0.0 mm
10:32 12.0 °C 9.9 °C 1026.6 hPa Calm   1.6 km/h 87 % 0.0 mm
10:37 12.1 °C 9.7 °C 1026.3 hPa Calm   3.2 km/h 85 % 0.0 mm
10:42 12.1 °C 9.7 °C 1026.3 hPa ENE 4.8 km/h 4.8 km/h 85 % 0.0 mm
10:47 12.1 °C 9.7 °C 1026.3 hPa NE 3.2 km/h 6.4 km/h 85 % 0.0 mm
10:52 12.3 °C 9.7 °C 1026.6 hPa NE 4.8 km/h 6.4 km/h 84 % 0.0 mm
10:57 12.5 °C 9.9 °C 1026.6 hPa Calm   6.4 km/h 84 % 0.0 mm
11:02 12.8 °C 10.0 °C 1026.3 hPa ENE 4.8 km/h 6.4 km/h 83 % 0.0 mm
11:07 12.8 °C 10.0 °C 1026.3 hPa ENE 6.4 km/h 9.7 km/h 83 % 0.0 mm
11:12 12.9 °C 10.1 °C 1026.3 hPa ENE 9.7 km/h 11.3 km/h 83 % 0.0 mm
11:17 13.1 °C 10.3 °C 1026.3 hPa ENE 6.4 km/h 11.3 km/h 83 % 0.0 mm
11:22 13.3 °C 10.1 °C 1026.3 hPa ENE 4.8 km/h 11.3 km/h 81 % 0.0 mm
11:27 13.4 °C 10.0 °C 1026.3 hPa ENE 4.8 km/h 11.3 km/h 80 % 0.0 mm
11:32 13.5 °C 10.3 °C 1026.3 hPa NNE 4.8 km/h 9.7 km/h 81 % 0.0 mm
11:37 13.7 °C 10.1 °C 1026.3 hPa ENE 4.8 km/h 9.7 km/h 79 % 0.0 mm
11:42 13.7 °C 10.1 °C 1026.3 hPa ENE 3.2 km/h 9.7 km/h 79 % 0.0 mm
11:52 13.9 °C 10.1 °C 1026.6 hPa ENE 1.6 km/h 9.7 km/h 78 % 0.0 mm
11:57 14.1 °C 10.3 °C 1026.3 hPa ENE 6.4 km/h 9.7 km/h 78 % 0.0 mm
12:02 14.3 °C 10.3 °C 1026.3 hPa ENE 3.2 km/h 12.9 km/h 77 % 0.0 mm
12:07 14.5 °C 10.3 °C 1026.6 hPa ESE 6.4 km/h 12.9 km/h 76 % 0.0 mm
12:12 14.4 °C 10.0 °C 1026.6 hPa ENE 9.7 km/h 12.9 km/h 75 % 0.0 mm
12:17 14.6 °C 10.0 °C 1026.6 hPa East 8.0 km/h 14.5 km/h 74 % 0.0 mm
12:22 14.7 °C 10.3 °C 1026.6 hPa ENE 6.4 km/h 14.5 km/h 75 % 0.0 mm
12:32 15.1 °C 10.5 °C 1026.3 hPa ENE 3.2 km/h 12.9 km/h 74 % 0.0 mm
12:42 15.3 °C 10.3 °C 1026.6 hPa NNE 4.8 km/h 14.5 km/h 72 % 0.0 mm
12:52 15.6 °C 9.7 °C 1026.6 hPa NW 1.6 km/h 14.5 km/h 68 % 0.0 mm
12:57 15.8 °C 10.3 °C 1026.3 hPa East 4.8 km/h 12.9 km/h 70 % 0.0 mm
13:02 15.9 °C 10.2 °C 1026.3 hPa NNE 8.0 km/h 12.9 km/h 69 % 0.0 mm
13:07 15.8 °C 9.7 °C 1026.3 hPa NE 4.8 km/h 12.9 km/h 67 % 0.0 mm
13:12 15.9 °C 10.2 °C 1026.3 hPa NE 3.2 km/h 16.1 km/h 69 % 0.0 mm
13:17 16.3 °C 10.4 °C 1026.3 hPa ENE 9.7 km/h 16.1 km/h 68 % 0.0 mm
13:22 16.3 °C 10.2 °C 1026.3 hPa ENE 11.3 km/h 19.3 km/h 67 % 0.0 mm
13:27 16.4 °C 10.0 °C 1026.3 hPa East 3.2 km/h 19.3 km/h 66 % 0.0 mm
13:32 16.3 °C 9.5 °C 1026.3 hPa ESE 3.2 km/h 19.3 km/h 64 % 0.0 mm
13:37 16.5 °C 9.4 °C 1026.3 hPa ESE 3.2 km/h 17.7 km/h 63 % 0.0 mm
13:42 16.6 °C 9.5 °C 1026.3 hPa ENE 11.3 km/h 17.7 km/h 63 % 0.0 mm
13:47 16.4 °C 9.6 °C 1026.0 hPa ENE 4.8 km/h 16.1 km/h 64 % 0.0 mm
13:52 16.4 °C 9.3 °C 1026.0 hPa NE 8.0 km/h 16.1 km/h 63 % 0.0 mm
13:57 16.3 °C 8.8 °C 1026.0 hPa NE 6.4 km/h 16.1 km/h 61 % 0.0 mm
14:02 16.4 °C 8.9 °C 1026.0 hPa East 9.7 km/h 20.9 km/h 61 % 0.0 mm
14:07 16.6 °C 8.6 °C 1026.0 hPa ENE 4.8 km/h 20.9 km/h 59 % 0.0 mm
14:12 16.5 °C 8.2 °C 1026.0 hPa ENE 6.4 km/h 14.5 km/h 58 % 0.0 mm
14:22 16.8 °C 8.0 °C 1026.0 hPa North 4.8 km/h 19.3 km/h 56 % 0.0 mm
14:27 17.0 °C 7.3 °C 1026.0 hPa NNE 9.7 km/h 19.3 km/h 53 % 0.0 mm
14:32 17.1 °C 8.3 °C 1026.0 hPa ENE 11.3 km/h 19.3 km/h 56 % 0.0 mm
14:37 16.9 °C 7.5 °C 1026.0 hPa ENE 12.9 km/h 19.3 km/h 54 % 0.0 mm
14:42 16.9 °C 8.1 °C 1026.0 hPa NNE 8.0 km/h 19.3 km/h 56 % 0.0 mm
14:47 17.2 °C 8.3 °C 1026.0 hPa NNE 8.0 km/h 19.3 km/h 56 % 0.0 mm
14:52 17.2 °C 7.8 °C 1026.0 hPa NE 16.1 km/h 19.3 km/h 54 % 0.0 mm
14:57 17.2 °C 8.1 °C 1026.0 hPa NNW 1.6 km/h 19.3 km/h 55 % 0.0 mm
15:02 17.2 °C 7.3 °C 1026.0 hPa East 6.4 km/h 19.3 km/h 52 % 0.0 mm
15:12 17.4 °C 6.3 °C 1026.0 hPa NE 12.9 km/h 19.3 km/h 48 % 0.0 mm
15:17 17.2 °C 5.8 °C 1026.0 hPa ENE 11.3 km/h 20.9 km/h 47 % 0.0 mm
15:22 17.3 °C 6.2 °C 1026.0 hPa ENE 16.1 km/h 20.9 km/h 48 % 0.0 mm
15:27 17.3 °C 6.5 °C 1026.0 hPa ENE 9.7 km/h 20.9 km/h 49 % 0.0 mm
15:32 17.4 °C 6.6 °C 1026.0 hPa ENE 11.3 km/h 19.3 km/h 49 % 0.0 mm
15:42 17.3 °C 5.6 °C 1025.6 hPa ENE 9.7 km/h 20.9 km/h 46 % 0.0 mm
15:52 17.3 °C 5.9 °C 1025.6 hPa ENE 14.5 km/h 22.5 km/h 47 % 0.0 mm
15:57 17.3 °C 5.6 °C 1025.6 hPa NNE 11.3 km/h 22.5 km/h 46 % 0.0 mm
16:02 17.4 °C 6.3 °C 1025.6 hPa NE 12.9 km/h 22.5 km/h 48 % 0.0 mm
16:12 17.4 °C 6.9 °C 1025.6 hPa NNE 11.3 km/h 20.9 km/h 50 % 0.0 mm
16:17 17.4 °C 7.2 °C 1025.6 hPa North 9.7 km/h 22.5 km/h 51 % 0.0 mm
16:27 17.5 °C 7.0 °C 1025.3 hPa NE 16.1 km/h 24.1 km/h 50 % 0.0 mm
16:32 17.5 °C 7.0 °C 1025.3 hPa NNW 1.6 km/h 24.1 km/h 50 % 0.0 mm
16:37 17.6 °C 7.1 °C 1025.6 hPa ENE 11.3 km/h 24.1 km/h 50 % 0.0 mm
16:42 17.6 °C 7.1 °C 1025.3 hPa NE 6.4 km/h 22.5 km/h 50 % 0.0 mm
16:47 17.7 °C 6.8 °C 1025.3 hPa ENE 9.7 km/h 22.5 km/h 49 % 0.0 mm
16:52 17.6 °C 6.8 °C 1025.3 hPa ENE 16.1 km/h 22.5 km/h 49 % 0.0 mm
16:57 17.6 °C 7.3 °C 1025.3 hPa ENE 12.9 km/h 17.7 km/h 51 % 0.0 mm
17:02 17.6 °C 7.9 °C 1025.3 hPa NNE 14.5 km/h 19.3 km/h 53 % 0.0 mm
17:12 17.7 °C 7.4 °C 1025.3 hPa ENE 9.7 km/h 19.3 km/h 51 % 0.0 mm
17:22 17.4 °C 7.7 °C 1025.3 hPa ENE 9.7 km/h 24.1 km/h 53 % 0.0 mm
17:27 17.5 °C 8.1 °C 1025.3 hPa NE 11.3 km/h 24.1 km/h 54 % 0.0 mm
17:32 17.4 °C 7.7 °C 1025.3 hPa NE 12.9 km/h 19.3 km/h 53 % 0.0 mm
17:42 17.4 °C 7.4 °C 1025.3 hPa ENE 8.0 km/h 20.9 km/h 52 % 0.0 mm
17:47 17.4 °C 7.2 °C 1025.3 hPa East 16.1 km/h 20.9 km/h 51 % 0.0 mm
17:52 17.3 °C 7.3 °C 1025.3 hPa ENE 12.9 km/h 20.9 km/h 52 % 0.0 mm
17:57 17.3 °C 7.3 °C 1024.9 hPa NE 12.9 km/h 20.9 km/h 52 % 0.0 mm
18:02 17.3 °C 7.6 °C 1024.9 hPa NE 12.9 km/h 19.3 km/h 53 % 0.0 mm
18:12 17.1 °C 7.7 °C 1024.9 hPa NNE 11.3 km/h 19.3 km/h 54 % 0.0 mm
18:17 17.1 °C 8.0 °C 1024.9 hPa NE 9.7 km/h 19.3 km/h 55 % 0.0 mm
18:22 17.0 °C 7.6 °C 1024.9 hPa East 16.1 km/h 19.3 km/h 54 % 0.0 mm
18:27 16.9 °C 7.8 °C 1024.9 hPa ENE 11.3 km/h 19.3 km/h 55 % 0.0 mm
18:32 16.9 °C 8.1 °C 1024.9 hPa ENE 4.8 km/h 16.1 km/h 56 % 0.0 mm
18:42 16.7 °C 7.3 °C 1025.3 hPa ENE 9.7 km/h 14.5 km/h 54 % 0.0 mm
18:47 16.6 °C 7.3 °C 1025.3 hPa NE 8.0 km/h 14.5 km/h 54 % 0.0 mm
18:57 16.3 °C 7.8 °C 1025.3 hPa NE 4.8 km/h 12.9 km/h 57 % 0.0 mm
19:02 16.1 °C 7.8 °C 1025.3 hPa NE 6.4 km/h 11.3 km/h 58 % 0.0 mm
19:12 15.4 °C 7.7 °C 1025.3 hPa ENE 6.4 km/h 9.7 km/h 60 % 0.0 mm
19:17 15.3 °C 7.8 °C 1025.3 hPa NE 6.4 km/h 9.7 km/h 61 % 0.0 mm
19:22 15.1 °C 7.9 °C 1025.3 hPa NNE 1.6 km/h 9.7 km/h 62 % 0.0 mm
19:27 14.9 °C 7.9 °C 1025.3 hPa NE 4.8 km/h 9.7 km/h 63 % 0.0 mm
19:32 14.6 °C 7.9 °C 1025.3 hPa NE 4.8 km/h 9.7 km/h 64 % 0.0 mm
19:37 14.2 °C 7.9 °C 1025.3 hPa NE 3.2 km/h 8.0 km/h 66 % 0.0 mm
19:42 13.9 °C 7.9 °C 1025.3 hPa NE 3.2 km/h 6.4 km/h 67 % 0.0 mm
19:47 13.8 °C 8.0 °C 1025.3 hPa NNE 4.8 km/h 8.0 km/h 68 % 0.0 mm
19:52 13.7 °C 8.1 °C 1025.3 hPa NE 6.4 km/h 8.0 km/h 69 % 0.0 mm
19:57 13.8 °C 8.2 °C 1025.3 hPa NE 6.4 km/h 8.0 km/h 69 % 0.0 mm
20:02 13.8 °C 8.2 °C 1025.3 hPa NNE 6.4 km/h 11.3 km/h 69 % 0.0 mm
20:07 13.7 °C 8.1 °C 1025.3 hPa ENE 4.8 km/h 11.3 km/h 69 % 0.0 mm
20:17 13.5 °C 8.1 °C 1025.3 hPa NE 8.0 km/h 11.3 km/h 70 % 0.0 mm
20:22 13.4 °C 8.0 °C 1025.3 hPa NE 6.4 km/h 11.3 km/h 70 % 0.0 mm
20:27 13.3 °C 8.2 °C 1025.3 hPa NE 4.8 km/h 9.7 km/h 71 % 0.0 mm
20:37 12.8 °C 8.1 °C 1025.3 hPa NE 3.2 km/h 9.7 km/h 73 % 0.0 mm
20:47 12.4 °C 8.1 °C 1025.6 hPa NNE 8.0 km/h 9.7 km/h 75 % 0.0 mm
20:52 12.5 °C 8.0 °C 1025.6 hPa NE 9.7 km/h 9.7 km/h 74 % 0.0 mm
21:02 12.8 °C 8.1 °C 1025.6 hPa NE 6.4 km/h 14.5 km/h 73 % 0.0 mm
21:12 12.6 °C 7.9 °C 1025.6 hPa NE 9.7 km/h 16.1 km/h 73 % 0.0 mm
21:17 12.5 °C 7.8 °C 1025.6 hPa NNE 6.4 km/h 16.1 km/h 73 % 0.0 mm
21:22 12.3 °C 7.6 °C 1025.6 hPa NE 8.0 km/h 16.1 km/h 73 % 0.0 mm
21:27 12.2 °C 7.5 °C 1025.6 hPa NE 8.0 km/h 12.9 km/h 73 % 0.0 mm
21:32 12.1 °C 7.6 °C 1025.6 hPa NE 8.0 km/h 12.9 km/h 74 % 0.0 mm
21:37 12.1 °C 7.6 °C 1025.6 hPa NNE 8.0 km/h 14.5 km/h 74 % 0.0 mm
21:42 11.9 °C 7.4 °C 1025.6 hPa NE 8.0 km/h 14.5 km/h 74 % 0.0 mm
21:47 11.9 °C 7.6 °C 1025.6 hPa NE 11.3 km/h 14.5 km/h 75 % 0.0 mm
21:52 11.8 °C 7.5 °C 1025.6 hPa NE 9.7 km/h 14.5 km/h 75 % 0.0 mm
21:57 11.7 °C 7.4 °C 1025.6 hPa NE 11.3 km/h 14.5 km/h 75 % 0.0 mm
22:02 11.7 °C 7.4 °C 1025.6 hPa NE 9.7 km/h 14.5 km/h 75 % 0.0 mm
22:07 11.6 °C 7.5 °C 1026.0 hPa NNE 11.3 km/h 14.5 km/h 76 % 0.0 mm
22:12 11.4 °C 7.3 °C 1025.6 hPa NE 9.7 km/h 16.1 km/h 76 % 0.0 mm
22:17 11.3 °C 7.4 °C 1026.0 hPa NNE 9.7 km/h 16.1 km/h 77 % 0.0 mm
22:22 11.3 °C 7.4 °C 1026.0 hPa NE 9.7 km/h 16.1 km/h 77 % 0.0 mm
22:27 11.2 °C 7.3 °C 1025.6 hPa NE 11.3 km/h 14.5 km/h 77 % 0.0 mm
22:32 11.1 °C 7.4 °C 1026.0 hPa NE 12.9 km/h 19.3 km/h 78 % 0.0 mm
22:37 11.1 °C 7.4 °C 1025.6 hPa NE 14.5 km/h 19.3 km/h 78 % 0.0 mm
22:42 11.1 °C 7.4 °C 1026.0 hPa NE 16.1 km/h 19.3 km/h 78 % 0.0 mm
22:47 11.0 °C 7.3 °C 1025.6 hPa North 11.3 km/h 19.3 km/h 78 % 0.0 mm
22:52 10.9 °C 7.4 °C 1026.0 hPa NE 11.3 km/h 19.3 km/h 79 % 0.0 mm
22:57 10.8 °C 7.3 °C 1025.6 hPa NE 12.9 km/h 19.3 km/h 79 % 0.0 mm
23:02 10.8 °C 7.3 °C 1025.6 hPa NNE 11.3 km/h 17.7 km/h 79 % 0.0 mm
23:07 10.8 °C 7.3 °C 1025.6 hPa NE 9.7 km/h 17.7 km/h 79 % 0.0 mm
23:12 10.8 °C 7.3 °C 1025.6 hPa NNE 12.9 km/h 17.7 km/h 79 % 0.0 mm
23:17 10.8 °C 7.3 °C 1025.6 hPa NE 16.1 km/h 19.3 km/h 79 % 0.0 mm
23:22 10.8 °C 7.3 °C 1025.6 hPa NE 16.1 km/h 19.3 km/h 79 % 0.0 mm
23:27 10.8 °C 7.3 °C 1025.6 hPa NNE 14.5 km/h 19.3 km/h 79 % 0.0 mm
23:32 10.7 °C 7.2 °C 1025.6 hPa NE 11.3 km/h 19.3 km/h 79 % 0.0 mm
23:37 10.7 °C 7.4 °C 1025.6 hPa NNE 11.3 km/h 19.3 km/h 80 % 0.0 mm
23:42 10.7 °C 7.4 °C 1025.6 hPa NNE 12.9 km/h 19.3 km/h 80 % 0.0 mm
23:47 10.6 °C 7.3 °C 1025.6 hPa NE 9.7 km/h 20.9 km/h 80 % 0.0 mm
23:52 10.5 °C 7.2 °C 1025.6 hPa NE 12.9 km/h 20.9 km/h 80 % 0.0 mm
23:57 10.4 °C 7.1 °C 1025.6 hPa NNE 16.1 km/h 20.9 km/h 80 % 0.0 mm
Meteo18
Compliments of Weather Underground - 4 mb

Script developed by  Jim McMurry - jmcmurry@mwt.net Adapted for the template by  Wim van der Kuil - Leuven-Template.eu

You find our weather info also at:

European Weather Network

Weather Underground

Equipment we use:

Weather-station
Davis Vue

Weather-program
Meteohub

Weather-server
Raspberry PI 2 B+

Provider
1 and 1

Davis Vue

Meteohub

Raspberry PI 2 B+

1 and 1